Time;durP1;ratioP1;P1;durP2;ratioP2;P2;SDS_P1;SDS_P2;PMS_P1;PMS_P2;Temp;Humidity;BMP_temperature;BMP_pressure;BME280_temperature;BME280_humidity;BME280_pressure;Samples;Min_cycle;Max_cycle;Signal;HPM_P1;HPM_P2
2021/12/27 00:01:21;;;;;;;0.73;0.50;;;;;;;9.43;75.62;98576.31;6242238;23;19996;-76
2021/12/27 00:03:51;;;;;;;0.80;0.80;;;;;;;9.50;76.05;98574.00;6240172;23;20056;-74
2021/12/27 00:06:18;;;;;;;0.75;0.75;;;;;;;9.48;76.09;98570.75;6242947;22;20035;-76
2021/12/27 00:08:43;;;;;;;3.70;0.82;;;;;;;9.50;76.12;98574.00;6243027;23;20094;-74
2021/12/27 00:11:11;;;;;;;0.93;0.93;;;;;;;9.46;75.79;98562.06;6241542;23;20357;-78
2021/12/27 00:13:36;;;;;;;1.10;1.10;;;;;;;9.48;75.85;98561.78;6240712;23;20019;-77
2021/12/27 00:16:02;;;;;;;0.88;0.50;;;;;;;9.49;76.17;98566.09;6226775;23;20004;-75
2021/12/27 00:18:28;;;;;;;0.50;0.50;;;;;;;9.48;75.83;98548.94;6266809;22;20742;-76
2021/12/27 00:20:55;;;;;;;0.40;0.40;;;;;;;9.50;76.33;98545.91;6263722;23;19999;-75
2021/12/27 00:23:20;;;;;;;0.68;0.68;;;;;;;9.51;76.08;98545.59;6263174;23;20000;-75
2021/12/27 00:25:46;;;;;;;0.60;0.60;;;;;;;9.48;76.39;98542.69;6261824;22;20015;-76
2021/12/27 00:28:11;;;;;;;0.80;0.80;;;;;;;9.52;76.09;98539.03;6260537;22;20024;-77
2021/12/27 00:30:38;;;;;;;1.13;1.13;;;;;;;9.48;76.49;98537.22;6274279;22;20019;-78
2021/12/27 00:33:04;;;;;;;1.60;1.50;;;;;;;9.47;76.19;98530.16;6275253;22;20004;-77
2021/12/27 00:35:32;;;;;;;1.52;1.42;;;;;;;9.46;76.47;98529.31;6244925;22;20007;-76
2021/12/27 00:37:58;;;;;;;1.02;1.02;;;;;;;9.46;76.66;98521.13;6248192;22;20179;-79
2021/12/27 00:40:26;;;;;;;2.35;1.70;;;;;;;9.44;76.79;98509.72;6248153;22;20003;-78
2021/12/27 00:42:52;;;;;;;1.75;1.65;;;;;;;9.41;77.00;98488.53;6273760;22;19999;-77
2021/12/27 00:45:20;;;;;;;2.67;1.38;;;;;;;9.44;76.93;98498.81;6247457;22;20011;-76
2021/12/27 00:47:45;;;;;;;1.95;1.85;;;;;;;9.44;76.96;98501.53;6274028;22;20581;-76
2021/12/27 00:50:11;;;;;;;1.70;1.60;;;;;;;9.40;76.66;98492.34;6277571;22;20669;-76
2021/12/27 00:52:37;;;;;;;1.08;1.08;;;;;;;9.37;76.85;98491.03;6244675;22;21199;-76
2021/12/27 00:55:08;;;;;;;1.15;1.15;;;;;;;9.41;76.56;98493.97;6249647;22;20086;-75
2021/12/27 00:57:34;;;;;;;1.83;0.88;;;;;;;9.40;76.69;98492.34;6274647;22;20015;-76
2021/12/27 00:59:59;;;;;;;1.00;0.90;;;;;;;9.40;77.21;98497.81;6276623;22;20054;-75
2021/12/27 01:02:25;;;;;;;0.70;0.70;;;;;;;9.37;76.89;98487.50;6274515;22;20004;-75
2021/12/27 01:04:51;;;;;;;1.73;0.70;;;;;;;9.38;77.12;98491.88;6246388;22;20073;-75
2021/12/27 01:07:16;;;;;;;0.80;0.80;;;;;;;9.31;77.37;98475.91;6273334;22;20100;-75
2021/12/27 01:12:27;;;;;;;0.73;0.73;;;;;;;9.26;77.40;98471.38;6223057;22;20035;-75
2021/12/27 01:15:09;;;;;;;0.70;0.70;;;;;;;9.23;77.66;98471.97;6272674;22;20014;-76
2021/12/27 01:17:43;;;;;;;0.90;0.90;;;;;;;9.21;78.13;98454.28;6273210;22;20008;-74
2021/12/27 01:20:22;;;;;;;1.27;1.17;;;;;;;9.26;77.90;98468.63;6271777;22;20073;-76
2021/12/27 01:22:48;;;;;;;1.13;1.13;;;;;;;9.24;78.19;98457.22;6273570;22;20049;-76
2021/12/27 01:25:14;;;;;;;0.60;0.60;;;;;;;9.29;77.75;98458.22;6272374;22;20406;-75
2021/12/27 01:27:40;;;;;;;0.80;0.80;;;;;;;9.32;78.04;98463.09;6275066;22;20003;-75
2021/12/27 01:30:09;;;;;;;0.68;0.68;;;;;;;9.31;78.29;98456.81;6246878;22;20110;-75
2021/12/27 01:32:41;;;;;;;1.35;0.90;;;;;;;9.30;78.21;98457.94;6274561;22;20072;-75
2021/12/27 01:35:06;;;;;;;0.93;0.93;;;;;;;9.33;77.91;98453.78;6272029;22;21001;-75
2021/12/27 01:37:32;;;;;;;0.98;0.95;;;;;;;9.34;77.73;98450.72;6272764;22;20070;-74
2021/12/27 01:39:58;;;;;;;1.10;1.10;;;;;;;9.34;78.08;98449.94;6272999;22;20474;-75
2021/12/27 01:42:23;;;;;;;1.15;1.15;;;;;;;9.36;78.08;98442.25;6273206;22;20054;-77
2021/12/27 01:44:49;;;;;;;0.70;0.70;;;;;;;9.36;78.15;98436.78;6274113;22;20031;-75
2021/12/27 01:47:19;;;;;;;0.98;0.95;;;;;;;9.38;78.28;98423.66;6246272;22;20322;-77
2021/12/27 01:49:45;;;;;;;0.85;0.80;;;;;;;9.41;78.28;98433.97;6221120;22;20000;-78
2021/12/27 01:52:10;;;;;;;0.70;0.70;;;;;;;9.44;78.15;98422.44;6247927;22;20423;-77
2021/12/27 01:54:36;;;;;;;0.52;0.52;;;;;;;9.46;78.19;98425.66;6274015;22;20035;-77
2021/12/27 01:57:02;;;;;;;0.93;0.93;;;;;;;9.49;78.14;98427.78;6270295;22;20322;-76
2021/12/27 01:59:28;;;;;;;1.00;1.00;;;;;;;9.51;78.16;98422.81;6247134;22;20135;-75
2021/12/27 02:01:54;;;;;;;0.82;0.82;;;;;;;9.52;77.81;98420.88;6221350;22;20074;-75
2021/12/27 02:04:19;;;;;;;0.95;0.95;;;;;;;9.54;78.43;98421.41;6220884;22;20019;-74
2021/12/27 02:06:45;;;;;;;0.73;0.73;;;;;;;9.52;77.76;98418.97;6243689;22;20008;-74
2021/12/27 02:09:10;;;;;;;1.23;1.13;;;;;;;9.55;78.17;98423.00;6245471;22;20039;-75
2021/12/27 02:11:36;;;;;;;0.70;0.70;;;;;;;9.55;78.49;98417.53;6268028;22;20004;-74
2021/12/27 02:14:03;;;;;;;1.10;1.10;;;;;;;9.52;78.26;98405.34;6221040;22;20018;-75
2021/12/27 02:16:29;;;;;;;1.23;1.13;;;;;;;9.53;78.31;98390.56;6220422;22;20019;-75
2021/12/27 02:18:54;;;;;;;1.25;1.15;;;;;;;9.60;78.22;98376.50;6247703;22;20422;-74
2021/12/27 02:21:21;;;;;;;29.48;2.08;;;;;;;9.58;78.52;98367.81;6248551;22;20034;-75
2021/12/27 02:23:54;;;;;;;1.08;1.08;;;;;;;9.65;78.13;98378.28;6247285;22;20011;-75
2021/12/27 02:26:21;;;;;;;1.45;1.42;;;;;;;9.66;77.88;98377.19;6244690;22;20197;-75
2021/12/27 02:28:47;;;;;;;1.58;1.48;;;;;;;9.71;77.97;98377.03;6213484;23;20138;-75
2021/12/27 02:31:15;;;;;;;2.75;2.55;;;;;;;9.72;78.11;98379.47;6243508;23;20020;-75
2021/12/27 02:33:42;;;;;;;2.25;1.80;;;;;;;9.72;77.93;98384.13;6242325;23;20004;-75
2021/12/27 02:36:11;;;;;;;4.30;2.72;;;;;;;9.70;78.36;98380.91;6215878;23;20642;-75
2021/12/27 02:38:40;;;;;;;2.60;2.40;;;;;;;9.72;78.36;98381.41;6217952;23;20090;-75
2021/12/27 02:41:08;;;;;;;2.13;2.03;;;;;;;9.79;77.78;98389.97;6243631;22;20000;-75
2021/12/27 02:43:35;;;;;;;4.82;3.03;;;;;;;9.73;77.78;98385.75;6241587;22;20440;-73
2021/12/27 02:46:05;;;;;;;2.40;2.30;;;;;;;9.77;78.77;98390.28;6243750;22;20426;-74
2021/12/27 02:48:35;;;;;;;2.95;1.75;;;;;;;9.65;77.96;98383.75;6239298;22;20415;-73
2021/12/27 02:51:01;;;;;;;2.53;2.33;;;;;;;9.76;78.67;98385.91;6259755;22;20004;-79
2021/12/27 02:53:28;;;;;;;5.28;2.58;;;;;;;9.76;78.16;98390.59;6262752;23;20031;-77
2021/12/27 02:55:55;;;;;;;2.78;2.58;;;;;;;9.78;78.29;98388.34;6259368;22;20057;-78
2021/12/27 02:58:21;;;;;;;2.22;2.03;;;;;;;9.80;78.65;98383.41;6265400;22;20003;-80
2021/12/27 03:00:55;;;;;;;2.03;1.90;;;;;;;9.80;78.63;98380.66;6262650;22;20004;-78
2021/12/27 03:03:21;;;;;;;3.28;2.67;;;;;;;9.84;78.45;98378.09;6266044;22;19988;-77
2021/12/27 03:05:47;;;;;;;2.15;2.05;;;;;;;9.83;78.43;98374.56;6261466;23;20019;-78
2021/12/27 03:08:19;;;;;;;2.10;1.88;;;;;;;9.83;78.88;98374.56;6246367;23;20035;-78
2021/12/27 03:10:49;;;;;;;2.72;2.53;;;;;;;9.84;78.35;98373.47;6245842;22;20098;-78
2021/12/27 03:13:23;;;;;;;4.68;2.20;;;;;;;9.87;78.14;98374.75;6241153;23;20004;-79
2021/12/27 03:15:58;;;;;;;4.82;2.78;;;;;;;9.87;78.10;98374.75;6250713;23;20038;-78
2021/12/27 03:18:24;;;;;;;3.10;2.80;;;;;;;9.87;78.30;98374.75;6242469;23;20004;-78
2021/12/27 03:20:51;;;;;;;6.78;2.80;;;;;;;9.84;78.60;98367.19;6244847;22;20050;-79
2021/12/27 03:23:17;;;;;;;3.15;2.95;;;;;;;9.81;77.78;98376.78;6218810;23;20385;-79
2021/12/27 03:25:50;;;;;;;3.00;2.80;;;;;;;9.69;78.70;98357.47;6244264;22;20008;-78
2021/12/27 03:28:17;;;;;;;4.38;2.95;;;;;;;9.73;78.39;98366.66;6251078;22;20019;-79
2021/12/27 03:30:45;;;;;;;3.30;2.22;;;;;;;9.67;78.68;98359.69;6270932;22;20028;-78
2021/12/27 03:33:31;;;;;;;2.90;2.70;;;;;;;9.59;78.50;98348.41;6246402;22;20315;-78
2021/12/27 03:36:05;;;;;;;4.13;2.55;;;;;;;9.52;79.00;98342.59;6273310;22;20007;-78
2021/12/27 03:38:36;;;;;;;3.65;2.85;;;;;;;9.52;78.84;98336.31;6246777;22;20078;-79
2021/12/27 03:41:05;;;;;;;8.05;3.70;;;;;;;9.60;79.51;98344.53;6247262;22;20007;-77
2021/12/27 03:43:30;;;;;;;3.80;3.15;;;;;;;9.66;78.60;98347.16;6247124;22;20055;-78
2021/12/27 03:45:56;;;;;;;3.20;2.90;;;;;;;9.65;78.64;98345.53;6247499;22;20011;-79
2021/12/27 03:48:22;;;;;;;4.28;3.15;;;;;;;9.61;78.80;98337.97;6247552;22;20415;-77
2021/12/27 03:50:47;;;;;;;3.65;2.50;;;;;;;9.64;78.68;98324.81;6244035;22;20008;-76
2021/12/27 03:53:15;;;;;;;2.47;2.38;;;;;;;9.66;78.57;98315.22;6244057;22;20334;-78
2021/12/27 03:55:41;;;;;;;2.58;2.40;;;;;;;9.76;78.14;98327.81;6274356;22;20004;-77
2021/12/27 03:58:24;;;;;;;3.15;2.90;;;;;;;9.81;78.46;98322.19;6245744;22;20014;-78
2021/12/27 04:03:20;;;;;;;1.95;1.83;;;;;;;9.85;78.63;98306.03;6288051;22;20003;-77
2021/12/27 04:05:58;;;;;;;3.00;2.05;;;;;;;9.82;77.73;98299.25;6277067;22;19995;-78
2021/12/27 04:08:26;;;;;;;3.50;2.28;;;;;;;9.89;78.10;98301.56;6281063;22;19995;-77
2021/12/27 04:10:53;;;;;;;2.42;1.80;;;;;;;9.91;78.62;98289.19;6251525;22;20099;-77
2021/12/27 04:13:21;;;;;;;3.25;2.70;;;;;;;9.91;77.99;98283.72;6253840;22;20012;-77
2021/12/27 04:15:47;;;;;;;2.30;2.10;;;;;;;9.80;77.91;98260.56;6278776;22;20406;-79
2021/12/27 04:18:13;;;;;;;1.98;1.88;;;;;;;9.81;78.04;98253.16;6209136;22;20067;-79
2021/12/27 04:20:44;;;;;;;2.15;1.60;;;;;;;9.90;78.27;98260.28;6260511;22;20416;-78
2021/12/27 04:23:15;;;;;;;2.28;2.17;;;;;;;9.98;78.33;98258.69;6265324;22;19999;-78
2021/12/27 04:25:41;;;;;;;2.55;2.33;;;;;;;10.04;77.85;98254.69;6273924;22;19988;-77
2021/12/27 04:28:07;;;;;;;1.88;1.77;;;;;;;10.01;78.56;98240.88;6265328;22;20054;-79
2021/12/27 04:30:33;;;;;;;4.18;2.58;;;;;;;10.02;77.73;98234.31;6262333;23;20039;-77
2021/12/27 04:33:05;;;;;;;4.78;2.30;;;;;;;10.06;78.58;98235.28;6256665;23;20026;-79
2021/12/27 04:35:34;;;;;;;4.53;2.08;;;;;;;10.09;78.04;98234.63;6243642;23;20000;-78
2021/12/27 04:38:08;;;;;;;3.17;2.67;;;;;;;10.15;77.73;98227.94;6242992;23;20441;-79
2021/12/27 04:40:47;;;;;;;3.05;2.00;;;;;;;9.98;78.36;98189.66;6240595;23;20008;-79
2021/12/27 04:43:19;;;;;;;2.97;1.98;;;;;;;9.94;77.92;98179.38;6244213;23;20031;-78
2021/12/27 04:46:08;;;;;;;2.75;2.40;;;;;;;10.02;78.45;98182.44;6242694;23;20001;-80
2021/12/27 04:48:34;;;;;;;1.98;1.88;;;;;;;10.01;78.11;98167.97;6241713;22;20300;-80
2021/12/27 04:51:02;;;;;;;2.72;2.60;;;;;;;10.13;78.21;98176.38;6241380;23;20004;-79
2021/12/27 04:53:37;;;;;;;3.00;2.80;;;;;;;10.28;78.31;98188.75;6242460;23;20589;-80
2021/12/27 04:56:03;;;;;;;;;;;;;;;10.34;77.89;98174.97;6251208;23;20066;-79
2021/12/27 04:58:46;;;;;;;2.35;2.25;;;;;;;10.16;78.15;98149.53;6246462;23;19903;-77
2021/12/27 05:01:25;;;;;;;3.60;2.08;;;;;;;10.13;78.06;98145.50;6244434;23;20004;-76
2021/12/27 05:03:56;;;;;;;3.88;2.58;;;;;;;10.20;78.80;98159.50;6246191;22;20055;-78
2021/12/27 05:06:31;;;;;;;3.20;2.92;;;;;;;10.23;78.17;98149.88;6245402;22;20004;-78
2021/12/27 05:08:59;;;;;;;3.67;3.00;;;;;;;10.19;78.36;98141.50;6244776;22;20054;-76
2021/12/27 05:11:31;;;;;;;3.30;2.55;;;;;;;10.23;78.62;98137.00;6243927;23;20023;-76
2021/12/27 05:14:04;;;;;;;2.92;2.72;;;;;;;10.37;78.28;98149.75;6241886;23;20015;-77
2021/12/27 05:16:30;;;;;;;2.20;2.10;;;;;;;10.36;78.74;98134.47;6245389;22;20000;-77
2021/12/27 05:18:55;;;;;;;2.63;2.47;;;;;;;10.31;78.69;98130.75;6242508;22;20012;-78
2021/12/27 05:21:23;;;;;;;2.90;2.78;;;;;;;10.42;78.61;98139.44;6245377;22;20331;-77
2021/12/27 05:23:49;;;;;;;3.22;2.00;;;;;;;10.46;78.63;98136.91;6216961;23;20000;-77
2021/12/27 05:26:14;;;;;;;5.05;2.80;;;;;;;10.48;78.87;98124.53;6240874;23;20016;-77
2021/12/27 05:28:40;;;;;;;2.72;2.63;;;;;;;10.50;78.55;98124.22;6255694;22;20015;-78
2021/12/27 05:31:06;;;;;;;3.50;2.75;;;;;;;10.53;78.42;98117.28;6220941;22;20025;-76
2021/12/27 05:33:32;;;;;;;2.70;2.60;;;;;;;10.54;78.16;98114.25;6223006;22;20011;-77
2021/12/27 05:35:57;;;;;;;4.95;3.88;;;;;;;10.54;78.39;98105.22;6275622;22;20103;-77
2021/12/27 05:38:22;;;;;;;4.07;3.20;;;;;;;10.50;78.45;98094.16;6246692;22;20008;-77
2021/12/27 05:40:48;;;;;;;3.20;2.95;;;;;;;10.61;78.89;98113.75;6223308;22;20014;-76
2021/12/27 05:43:13;;;;;;;6.38;3.40;;;;;;;10.59;78.40;98103.13;6247523;22;20023;-78
2021/12/27 05:45:39;;;;;;;2.95;2.75;;;;;;;10.59;78.68;98105.88;6275371;22;20008;-77
2021/12/27 05:48:06;;;;;;;3.00;2.80;;;;;;;10.64;79.14;98102.97;6244442;22;20018;-77
2021/12/27 05:50:34;;;;;;;3.72;3.00;;;;;;;10.61;78.90;98087.22;6249473;22;20007;-77
2021/12/27 05:53:01;;;;;;;4.43;2.65;;;;;;;10.64;78.30;98088.50;6225325;22;20053;-76
2021/12/27 05:55:27;;;;;;;2.95;2.85;;;;;;;10.56;78.54;98065.53;6246598;22;20011;-77
2021/12/27 05:57:53;;;;;;;2.38;2.17;;;;;;;10.63;78.55;98065.84;6273973;22;20454;-78
2021/12/27 06:00:19;;;;;;;2.85;2.65;;;;;;;10.71;78.25;98068.88;6274383;22;20090;-77
2021/12/27 06:02:45;;;;;;;2.25;2.15;;;;;;;10.70;78.61;98072.72;6274666;22;20004;-77
2021/12/27 06:05:11;;;;;;;2.90;2.70;;;;;;;10.69;78.89;98055.53;6270852;22;20423;-78
2021/12/27 06:07:37;;;;;;;3.85;3.55;;;;;;;10.70;78.90;98053.59;6246582;22;20330;-77
2021/12/27 06:10:04;;;;;;;4.05;2.53;;;;;;;10.74;78.44;98040.91;6275489;22;20008;-79
2021/12/27 06:12:30;;;;;;;3.80;2.10;;;;;;;10.79;78.59;98044.25;6244515;22;20008;-77
2021/12/27 06:14:55;;;;;;;5.20;3.33;;;;;;;10.82;78.73;98031.88;6247895;22;20014;-78
2021/12/27 06:17:21;;;;;;;2.35;2.25;;;;;;;10.87;78.25;98037.16;6246744;22;20086;-78
2021/12/27 06:19:46;;;;;;;2.53;2.30;;;;;;;10.86;78.60;98019.13;6276157;22;20007;-78
2021/12/27 06:22:12;;;;;;;2.88;2.63;;;;;;;10.85;78.67;98012.09;6274659;22;20322;-79
2021/12/27 06:24:38;;;;;;;2.70;2.60;;;;;;;10.86;78.20;98018.34;6244546;22;20014;-78
2021/12/27 06:27:04;;;;;;;3.00;2.80;;;;;;;10.89;78.31;98009.50;6276224;22;20349;-79
2021/12/27 06:29:29;;;;;;;3.42;2.20;;;;;;;10.93;78.31;98010.44;6240428;22;20031;-79
2021/12/27 06:31:55;;;;;;;2.13;1.95;;;;;;;10.93;78.23;98004.97;6243353;22;20323;-78
2021/12/27 06:34:20;;;;;;;2.05;1.85;;;;;;;10.93;78.37;97994.84;6243225;23;20083;-79
2021/12/27 06:36:46;;;;;;;2.50;2.30;;;;;;;10.91;78.44;97996.31;6243041;22;20000;-78
2021/12/27 06:39:14;;;;;;;3.08;2.97;;;;;;;10.87;78.19;97985.22;6241115;23;20000;-78
2021/12/27 06:41:40;;;;;;;4.82;2.72;;;;;;;10.94;78.65;97996.44;6241031;22;20130;-79
2021/12/27 06:44:05;;;;;;;4.15;2.97;;;;;;;10.94;78.00;97996.44;6216698;23;20028;-78
2021/12/27 06:46:31;;;;;;;3.50;3.13;;;;;;;10.96;78.74;98005.09;6213586;23;20012;-80
2021/12/27 06:48:59;;;;;;;3.25;2.83;;;;;;;10.91;78.46;98008.03;6244108;23;20524;-79
2021/12/27 06:51:25;;;;;;;3.10;2.90;;;;;;;10.91;78.68;98018.19;6238635;23;20007;-79
2021/12/27 06:53:50;;;;;;;5.85;3.60;;;;;;;10.83;78.28;98004.22;6218198;23;20004;-79
2021/12/27 06:56:16;;;;;;;3.65;3.45;;;;;;;10.74;78.37;97992.47;6243521;22;20327;-79
2021/12/27 06:58:41;;;;;;;5.38;3.20;;;;;;;10.78;78.19;97995.38;6192729;23;20018;-80
2021/12/27 07:01:07;;;;;;;5.50;4.00;;;;;;;10.82;78.58;98004.53;6216209;23;20012;-77
2021/12/27 07:03:34;;;;;;;4.25;3.95;;;;;;;10.81;78.44;98011.13;6243731;22;20011;-76
2021/12/27 07:05:59;;;;;;;4.70;4.38;;;;;;;10.72;78.73;97994.75;6244585;23;20008;-76
2021/12/27 07:08:25;;;;;;;4.10;3.80;;;;;;;10.74;79.18;98002.63;6240407;23;20014;-77
2021/12/27 07:10:50;;;;;;;5.28;4.18;;;;;;;10.71;78.94;97997.81;6241421;23;20035;-76
2021/12/27 07:13:16;;;;;;;4.57;4.15;;;;;;;10.74;79.40;97997.16;6239951;23;20004;-76
2021/12/27 07:15:42;;;;;;;4.80;4.45;;;;;;;10.77;78.90;97986.34;6241237;22;20104;-75
2021/12/27 07:18:12;;;;;;;5.30;4.90;;;;;;;10.75;79.18;97977.69;6242490;22;20085;-75
2021/12/27 07:20:39;;;;;;;4.13;3.88;;;;;;;10.75;79.17;97977.69;6242193;22;20011;-74
2021/12/27 07:23:06;;;;;;;4.97;4.68;;;;;;;10.78;79.62;97970.78;6241149;23;20112;-75
2021/12/27 07:25:32;;;;;;;5.18;4.28;;;;;;;10.78;79.39;97978.97;6213678;23;20023;-74
2021/12/27 07:27:58;;;;;;;4.13;3.60;;;;;;;10.78;79.77;97970.78;6242862;22;20008;-75
2021/12/27 07:30:24;;;;;;;4.05;3.72;;;;;;;10.78;79.60;97970.78;6246415;22;20053;-74
2021/12/27 07:32:50;;;;;;;4.07;3.88;;;;;;;10.76;79.76;97956.63;6219448;22;20028;-74
2021/12/27 07:35:16;;;;;;;3.42;3.13;;;;;;;10.80;79.15;97968.50;6272901;22;20334;-75
2021/12/27 07:37:42;;;;;;;2.70;2.50;;;;;;;10.81;79.58;97964.66;6271559;22;20008;-74
2021/12/27 07:40:10;;;;;;;4.50;4.10;;;;;;;10.79;79.66;97972.38;6272809;22;20019;-76
2021/12/27 07:42:36;;;;;;;2.42;2.33;;;;;;;10.77;79.76;97960.97;6271169;22;20288;-74
2021/12/27 07:45:02;;;;;;;3.05;2.90;;;;;;;10.76;80.02;97962.09;6270473;22;20082;-74
2021/12/27 07:47:27;;;;;;;2.63;2.53;;;;;;;10.76;80.49;97967.56;6245681;22;20041;-74
2021/12/27 07:49:53;;;;;;;2.33;2.03;;;;;;;10.76;80.38;97962.09;6243981;22;20012;-74
2021/12/27 07:52:18;;;;;;;3.05;2.85;;;;;;;10.73;80.13;97949.06;6272560;22;20431;-75
2021/12/27 07:54:44;;;;;;;2.50;2.35;;;;;;;10.72;80.12;97947.47;6270882;22;20008;-77
2021/12/27 07:57:11;;;;;;;7.60;2.70;;;;;;;10.69;80.27;97948.94;6245425;22;20078;-75
2021/12/27 07:59:42;;;;;;;2.42;2.22;;;;;;;10.74;80.31;97954.22;6272820;22;20458;-74
2021/12/27 08:02:21;;;;;;;;;;;;;;;;;;;;;
2021/12/27 08:07:47;;;;;;;2.03;1.88;;;;;;;10.77;80.15;97936.38;6244746;22;20008;-75
2021/12/27 08:10:18;;;;;;;2.00;1.90;;;;;;;10.81;80.10;97937.31;6248765;22;20484;-76
2021/12/27 08:12:49;;;;;;;2.30;2.20;;;;;;;10.82;80.70;97942.47;6242387;22;20494;-76
2021/12/27 08:15:16;;;;;;;2.15;1.95;;;;;;;10.83;80.08;97935.88;6239513;22;20019;-75
2021/12/27 08:17:53;;;;;;;1.75;1.65;;;;;;;10.72;80.48;97918.22;6248359;22;20007;-77
2021/12/27 08:20:49;;;;;;;;;;;;;;;;;;;;;
2021/12/27 08:23:20;;;;;;;1.33;1.23;;;;;;;10.78;80.78;97936.03;6257272;22;20474;-77
2021/12/27 08:26:19;;;;;;;;;;;;;;;;;;;;;
2021/12/27 08:29:19;;;;;;;1.48;1.38;;;;;;;10.82;80.68;97960.81;6270743;22;20481;-76
2021/12/27 08:32:02;;;;;;;;;;;;;;;;;;;;;
2021/12/27 08:35:01;;;;;;;;;;;;;;;;;;;;;
2021/12/27 08:37:41;;;;;;;0.93;0.93;;;;;;;10.54;80.80;97908.47;6241297;22;20035;-74
2021/12/27 08:43:12;;;;;;;1.00;0.85;;;;;;;10.57;81.33;97905.09;6214284;22;20082;-75
2021/12/27 08:51:44;;;;;;;;;;;;;;;;;;;;;
2021/12/27 08:55:08;;;;;;;;;;;;;;;;;;;;;
2021/12/27 08:57:51;;;;;;;0.50;0.50;;;;;;;10.55;81.28;97894.47;6273527;22;20091;-76
2021/12/27 09:00:39;;;;;;;0.70;0.50;;;;;;;10.62;81.60;97886.59;6245334;22;20004;-75
2021/12/27 09:03:05;;;;;;;0.55;0.30;;;;;;;10.59;81.45;97870.84;6251065;22;20030;-74
2021/12/27 09:05:33;;;;;;;0.38;0.38;;;;;;;10.64;81.68;97878.88;6272970;22;20004;-75
2021/12/27 09:08:15;;;;;;;;;;;;;;;;;;;;;
2021/12/27 09:11:10;;;;;;;1.77;0.40;;;;;;;10.65;81.37;97883.19;6249712;22;20086;-77
2021/12/27 09:13:39;;;;;;;1.17;0.38;;;;;;;10.56;81.64;97868.78;6256656;22;20015;-75
2021/12/27 09:16:35;;;;;;;;;;;;;;;;;;;;;
2021/12/27 09:19:31;;;;;;;1.95;0.50;;;;;;;10.55;82.17;97871.84;6264510;22;20083;-76
2021/12/27 09:22:08;;;;;;;;;;;;;;;;;;;;;
2021/12/27 09:24:34;;;;;;;0.82;0.70;;;;;;;10.45;82.40;97840.19;6292640;22;20019;-76
2021/12/27 09:27:00;;;;;;;2.08;0.73;;;;;;;10.61;82.16;97857.63;6293964;22;20003;-76
2021/12/27 09:29:26;;;;;;;5.55;0.60;;;;;;;10.60;82.43;97847.88;6255526;22;20027;-76
2021/12/27 09:31:55;;;;;;;3.25;0.45;;;;;;;10.67;82.67;97854.72;6220028;23;20599;-74
2021/12/27 09:34:20;;;;;;;1.02;0.40;;;;;;;10.64;82.25;97867.13;6244105;22;20008;-75
2021/12/27 09:36:46;;;;;;;1.60;0.73;;;;;;;10.60;82.60;97839.66;6215793;23;20039;-74
2021/12/27 09:39:12;;;;;;;0.52;0.52;;;;;;;10.56;82.55;97838.72;6216178;23;20008;-75
2021/12/27 09:41:38;;;;;;;0.52;0.32;;;;;;;10.58;82.35;97833.72;6217161;23;20066;-75
2021/12/27 09:44:04;;;;;;;1.25;0.50;;;;;;;10.56;82.23;97827.00;6217445;23;20043;-76
2021/12/27 09:46:30;;;;;;;3.15;0.90;;;;;;;10.56;82.79;97848.84;6239915;23;20322;-72
2021/12/27 09:48:58;;;;;;;1.20;0.35;;;;;;;10.58;82.55;97832.91;6242163;23;20015;-77
2021/12/27 09:51:26;;;;;;;0.60;0.30;;;;;;;10.54;83.01;97821.03;6242618;23;20004;-77
2021/12/27 09:53:52;;;;;;;1.25;0.38;;;;;;;10.58;83.09;97814.56;6240028;23;20087;-76
2021/12/27 09:56:18;;;;;;;0.82;0.20;;;;;;;10.56;82.57;97835.19;6240840;23;20022;-75
2021/12/27 09:58:44;;;;;;;3.92;0.55;;;;;;;10.53;82.54;97822.97;6241403;23;20470;-75
2021/12/27 10:01:09;;;;;;;3.03;0.43;;;;;;;10.51;82.91;97825.22;6216870;23;20004;-75
2021/12/27 10:03:51;;;;;;;1.02;0.25;;;;;;;10.55;82.86;97819.91;6240721;23;20016;-78
2021/12/27 10:06:18;;;;;;;1.70;0.20;;;;;;;10.47;82.39;97813.38;6238454;23;20057;-74
2021/12/27 10:08:52;;;;;;;2.75;0.17;;;;;;;10.48;82.33;97798.56;6244676;23;20008;-75
2021/12/27 10:11:34;;;;;;;0.88;0.20;;;;;;;10.42;82.52;97792.47;6242038;23;20050;-73
2021/12/27 10:14:04;;;;;;;3.50;0.40;;;;;;;10.50;82.37;97801.78;6244333;22;20085;-75
2021/12/27 10:16:32;;;;;;;2.10;0.25;;;;;;;10.44;82.55;97803.06;6242334;22;20322;-74
2021/12/27 10:19:00;;;;;;;0.60;0.20;;;;;;;10.31;82.79;97775.63;6243552;22;20084;-73
2021/12/27 10:21:27;;;;;;;0.38;0.20;;;;;;;10.36;83.13;97784.81;6241266;23;20004;-72
2021/12/27 10:24:09;;;;;;;2.15;0.10;;;;;;;10.38;82.92;97786.09;6241799;23;20046;-74
2021/12/27 10:26:36;;;;;;;0.65;0.00;;;;;;;10.35;83.13;97784.00;6240994;23;20004;-74
2021/12/27 10:29:14;;;;;;;0.32;0.10;;;;;;;10.33;82.97;97769.06;6261479;22;20327;-74
2021/12/27 10:31:55;;;;;;;0.68;0.20;;;;;;;10.35;83.29;97777.75;6276386;22;20326;-76
2021/12/27 10:34:23;;;;;;;0.38;0.20;;;;;;;10.31;83.41;97789.28;6249048;22;20007;-73
2021/12/27 10:37:06;;;;;;;3.40;0.20;;;;;;;10.33;83.37;97779.97;6247009;22;20041;-74
2021/12/27 10:39:49;;;;;;;0.55;0.20;;;;;;;10.32;83.77;97762.78;6275075;22;20011;-76
2021/12/27 10:42:19;;;;;;;0.32;0.30;;;;;;;10.28;83.15;97757.19;6274043;22;20069;-75
2021/12/27 10:44:45;;;;;;;0.15;0.13;;;;;;;10.35;83.67;97761.34;6274084;22;20306;-75
2021/12/27 10:47:27;;;;;;;0.15;0.10;;;;;;;10.36;83.83;97757.50;6248010;22;20010;-75
2021/12/27 10:49:54;;;;;;;0.20;0.10;;;;;;;10.38;83.55;97747.03;6275957;22;20004;-75
2021/12/27 10:52:20;;;;;;;0.00;0.00;;;;;;;10.50;84.04;97743.59;6249215;22;20098;-74
2021/12/27 10:54:46;;;;;;;0.10;0.10;;;;;;;10.52;84.11;97739.41;6268420;22;20443;-73
2021/12/27 10:57:12;;;;;;;0.20;0.10;;;;;;;10.56;84.18;97740.34;6244220;22;20014;-76
2021/12/27 10:59:38;;;;;;;0.10;0.10;;;;;;;10.64;84.24;97733.22;6247572;22;20014;-73
2021/12/27 11:02:13;;;;;;;0.30;0.13;;;;;;;10.64;83.32;97725.81;6221472;22;20095;-73
2021/12/27 11:04:39;;;;;;;0.10;0.00;;;;;;;10.72;84.06;97720.59;6247696;22;20055;-73
2021/12/27 11:07:06;;;;;;;0.17;0.10;;;;;;;10.77;84.07;97715.75;6255871;22;20007;-74
2021/12/27 11:09:33;;;;;;;0.15;0.10;;;;;;;10.77;83.93;97717.69;6278308;22;20410;-79
2021/12/27 11:12:00;;;;;;;1.33;0.68;;;;;;;10.80;84.19;97714.28;6276668;22;20501;-79
2021/12/27 11:14:29;;;;;;;5.65;0.50;;;;;;;10.80;84.18;97711.53;6224643;22;20430;-78
2021/12/27 11:16:55;;;;;;;2.78;0.45;;;;;;;10.88;83.70;97724.34;6249087;22;20042;-79
2021/12/27 11:19:21;;;;;;;0.95;0.55;;;;;;;10.88;84.59;97713.41;6248378;22;20007;-78
2021/12/27 11:21:49;;;;;;;3.08;0.82;;;;;;;10.82;84.78;97715.56;6274199;22;20004;-78
2021/12/27 11:24:15;;;;;;;2.92;0.63;;;;;;;10.89;85.24;97717.75;6276004;22;20035;-78
2021/12/27 11:26:43;;;;;;;2.35;0.80;;;;;;;10.94;85.05;97714.03;6273990;22;20007;-78
2021/12/27 11:29:19;;;;;;;3.45;0.95;;;;;;;11.06;85.21;97714.06;6273773;22;20061;-78
2021/12/27 11:31:50;;;;;;;4.15;1.00;;;;;;;11.16;85.27;97715.59;6244479;22;20027;-78
2021/12/27 11:34:18;;;;;;;11.23;1.15;;;;;;;11.21;85.07;97715.38;6274484;22;20008;-79
2021/12/27 11:36:49;;;;;;;7.43;1.65;;;;;;;11.29;85.66;97722.72;6218198;22;20449;-79
2021/12/27 11:39:36;;;;;;;4.97;0.90;;;;;;;11.34;85.73;97719.75;6248471;22;20728;-79
2021/12/27 11:42:11;;;;;;;7.13;2.35;;;;;;;11.41;85.38;97719.22;6245968;22;20004;-79
2021/12/27 11:44:40;;;;;;;21.42;2.85;;;;;;;11.46;85.85;97715.44;6273949;22;20414;-78
2021/12/27 11:47:07;;;;;;;8.75;2.90;;;;;;;11.53;86.12;97715.69;6245554;22;20011;-79
2021/12/27 11:49:45;;;;;;;30.67;3.88;;;;;;;11.60;85.55;97726.91;6250585;22;20308;-79
2021/12/27 11:52:14;;;;;;;28.38;3.70;;;;;;;11.60;86.34;97723.38;6274217;22;20000;-79
2021/12/27 11:54:49;;;;;;;22.80;5.18;;;;;;;11.65;86.09;97715.75;6247360;22;20007;-80
2021/12/27 11:57:43;;;;;;;51.25;6.15;;;;;;;11.73;86.31;97719.50;6275231;22;20407;-78
2021/12/27 12:00:17;;;;;;;46.80;6.65;;;;;;;11.90;86.25;97721.25;6249059;22;20097;-78
2021/12/27 12:02:52;;;;;;;39.13;6.77;;;;;;;11.95;86.07;97720.25;6275809;22;19999;-79
2021/12/27 12:05:44;;;;;;;43.17;6.53;;;;;;;12.14;86.24;97727.91;6272293;22;20004;-80
2021/12/27 12:08:15;;;;;;;58.88;8.18;;;;;;;12.17;85.46;97738.19;6248347;22;20012;-79
2021/12/27 12:11:04;;;;;;;61.80;8.32;;;;;;;12.12;85.21;97732.91;6243427;22;19996;-78
2021/12/27 12:13:41;;;;;;;71.85;9.32;;;;;;;12.05;85.52;97723.34;6273293;22;20007;-78
2021/12/27 12:16:10;;;;;;;80.18;10.00;;;;;;;12.01;85.28;97735.31;6244714;22;20089;-79
2021/12/27 12:18:43;;;;;;;65.32;9.38;;;;;;;11.94;86.11;97724.91;6270732;22;20071;-79